Time;durP1;ratioP1;P1;durP2;ratioP2;P2;SDS_P1;SDS_P2;PMS_P1;PMS_P2;Temp;Humidity;BMP_temperature;BMP_pressure;BME280_temperature;BME280_humidity;BME280_pressure;Samples;Min_cycle;Max_cycle;Signal;HPM_P1;HPM_P2
2021/08/27 00:00:29;;;;;;;1.05;0.90;;;;;;;14.01;80.80;100676.38;4948779;28;20042;-81
2021/08/27 00:02:55;;;;;;;3.55;0.73;;;;;;;14.00;80.72;100676.41;4947857;28;20059;-82
2021/08/27 00:05:22;;;;;;;4.05;1.33;;;;;;;13.99;81.02;100680.84;4967239;28;20058;-82
2021/08/27 00:07:48;;;;;;;2.35;1.40;;;;;;;13.95;81.22;100670.41;4949206;28;20061;-80
2021/08/27 00:10:15;;;;;;;2.75;0.98;;;;;;;13.92;81.32;100667.84;4954980;28;20328;-81
2021/08/27 00:12:42;;;;;;;4.72;1.00;;;;;;;13.85;81.05;100665.34;4948085;28;20058;-79
2021/08/27 00:15:10;;;;;;;2.80;1.27;;;;;;;13.83;81.57;100668.91;4967245;28;20486;-84
2021/08/27 00:17:37;;;;;;;1.25;0.80;;;;;;;13.79;81.71;100670.72;4970463;28;20053;-82
2021/08/27 00:20:07;;;;;;;2.83;1.13;;;;;;;13.76;81.77;100678.72;4947950;28;20074;-80
2021/08/27 00:22:35;;;;;;;3.88;0.90;;;;;;;13.73;81.19;100674.38;4945826;28;20719;-82
2021/08/27 00:25:01;;;;;;;2.50;1.50;;;;;;;13.72;81.53;100677.91;4948112;28;20045;-79
2021/08/27 00:27:28;;;;;;;3.28;0.73;;;;;;;13.72;81.75;100669.16;4967748;28;20054;-81
2021/08/27 00:29:54;;;;;;;0.80;0.63;;;;;;;13.70;81.53;100668.31;4950097;28;20418;-82
2021/08/27 00:32:21;;;;;;;4.65;0.82;;;;;;;13.67;81.46;100663.13;4961920;28;21003;-78
2021/08/27 00:34:48;;;;;;;4.45;1.90;;;;;;;13.59;81.56;100679.06;4950836;28;20909;-81
2021/08/27 00:37:15;;;;;;;1.40;1.27;;;;;;;13.51;82.11;100667.84;4946429;28;20045;-80
2021/08/27 00:39:41;;;;;;;2.72;0.95;;;;;;;13.45;82.12;100667.97;4949717;28;20050;-79
2021/08/27 00:42:08;;;;;;;4.20;1.10;;;;;;;13.39;81.96;100661.94;4946970;28;20043;-81
2021/08/27 00:44:34;;;;;;;1.73;0.90;;;;;;;13.35;82.34;100657.63;4950271;28;20412;-81
2021/08/27 00:47:01;;;;;;;2.35;0.73;;;;;;;13.29;82.55;100662.13;4967472;28;20055;-79
2021/08/27 00:49:28;;;;;;;3.22;0.95;;;;;;;13.26;82.76;100663.06;4946063;28;20390;-80
2021/08/27 00:51:54;;;;;;;3.72;1.17;;;;;;;13.28;82.62;100663.03;4932755;28;21064;-83
2021/08/27 00:54:21;;;;;;;2.63;1.00;;;;;;;13.31;82.85;100666.47;4945627;28;21457;-82
2021/08/27 00:56:53;;;;;;;4.43;1.10;;;;;;;13.34;82.58;100665.53;4951381;28;20185;-83
2021/08/27 00:59:21;;;;;;;1.80;0.65;;;;;;;13.35;82.54;100668.13;4957934;28;20105;-80
2021/08/27 01:01:47;;;;;;;1.52;1.23;;;;;;;13.35;82.62;100664.63;4947926;28;20051;-85
2021/08/27 01:04:15;;;;;;;1.90;1.23;;;;;;;13.36;82.55;100669.91;4933917;28;20050;-79
2021/08/27 01:07:04;;;;;;;1.67;1.50;;;;;;;13.38;82.23;100662.84;4962031;28;20038;-81
2021/08/27 01:09:56;;;;;;;2.55;1.15;;;;;;;13.42;82.66;100675.94;4950953;28;21173;-79
2021/08/27 01:12:38;;;;;;;1.67;1.15;;;;;;;13.42;81.98;100668.91;4960537;28;20051;-85
2021/08/27 01:15:23;;;;;;;4.00;1.05;;;;;;;13.41;82.34;100672.44;4949782;28;20582;-79
2021/08/27 01:17:56;;;;;;;3.00;1.30;;;;;;;13.38;82.02;100675.97;4937216;28;20074;-83
2021/08/27 01:20:53;;;;;;;3.50;0.85;;;;;;;13.36;82.77;100671.63;4963359;28;20139;-83
2021/08/27 01:23:46;;;;;;;2.30;1.17;;;;;;;13.35;82.29;100670.75;4966338;28;20541;-82
2021/08/27 01:26:15;;;;;;;4.15;1.15;;;;;;;13.34;82.47;100670.81;4932407;28;20110;-82
2021/08/27 01:28:49;;;;;;;1.65;1.08;;;;;;;13.33;82.33;100669.91;4968049;28;20060;-81
2021/08/27 01:31:36;;;;;;;3.50;1.15;;;;;;;13.33;82.65;100675.19;4962333;28;21023;-80
2021/08/27 01:34:22;;;;;;;3.42;1.00;;;;;;;13.30;82.50;100671.75;4945163;28;20152;-79
2021/08/27 01:36:51;;;;;;;4.30;0.90;;;;;;;13.33;82.51;100674.31;4932903;28;20183;-84
2021/08/27 01:39:20;;;;;;;2.58;1.20;;;;;;;13.32;82.63;100673.44;4948600;28;20070;-83
2021/08/27 01:41:52;;;;;;;2.67;1.00;;;;;;;13.31;82.64;100684.00;4952730;28;20072;-84
2021/08/27 01:44:22;;;;;;;5.63;1.05;;;;;;;13.30;82.68;100677.03;4942665;28;20073;-80
2021/08/27 01:46:51;;;;;;;4.38;1.48;;;;;;;13.29;82.69;100673.50;4948583;28;20536;-81
2021/08/27 01:49:19;;;;;;;1.85;1.58;;;;;;;13.29;82.71;100667.41;4947524;28;20066;-84
2021/08/27 01:51:48;;;;;;;0.98;0.93;;;;;;;13.27;82.79;100675.31;4942489;28;20058;-82
2021/08/27 01:54:19;;;;;;;3.40;0.98;;;;;;;13.24;83.10;100671.00;4952722;28;20542;-79
2021/08/27 01:56:46;;;;;;;1.40;1.00;;;;;;;13.25;83.28;100674.47;4933931;28;20047;-82
2021/08/27 01:59:13;;;;;;;9.77;1.10;;;;;;;13.26;83.16;100665.69;4957113;28;20050;-81
2021/08/27 02:01:40;;;;;;;3.25;0.98;;;;;;;13.27;83.01;100669.19;4946782;28;20350;-82
2021/08/27 02:04:11;;;;;;;8.70;0.93;;;;;;;13.23;83.20;100660.47;4948997;28;20062;-83
2021/08/27 02:06:38;;;;;;;13.75;1.23;;;;;;;13.22;83.12;100669.28;4951925;28;20049;-80
2021/08/27 02:09:06;;;;;;;3.10;1.55;;;;;;;13.22;83.48;100669.28;4969399;28;20129;-81
2021/08/27 02:11:35;;;;;;;4.15;2.17;;;;;;;13.21;83.10;100660.50;4940073;28;20043;-80
2021/08/27 02:14:02;;;;;;;1.63;0.90;;;;;;;13.22;83.24;100667.50;4946840;28;20074;-82
2021/08/27 02:16:29;;;;;;;2.47;1.02;;;;;;;13.22;83.67;100667.50;4970626;28;20049;-82
2021/08/27 02:18:57;;;;;;;2.25;1.00;;;;;;;13.19;83.53;100664.06;4966457;28;20490;-82
2021/08/27 02:21:27;;;;;;;1.40;0.70;;;;;;;13.16;83.88;100661.50;4970900;28;20057;-81
2021/08/27 02:23:57;;;;;;;4.70;1.00;;;;;;;13.10;84.37;100666.88;4950799;28;20077;-79
2021/08/27 02:26:23;;;;;;;2.97;0.98;;;;;;;13.06;84.39;100666.06;4930997;28;20064;-82
2021/08/27 02:28:51;;;;;;;2.30;1.08;;;;;;;13.00;84.53;100664.44;4951612;28;20098;-83
2021/08/27 02:31:18;;;;;;;2.35;0.70;;;;;;;12.99;84.69;100672.34;4963104;28;20057;-83
2021/08/27 02:33:48;;;;;;;2.58;0.63;;;;;;;13.02;84.66;100673.16;4949499;28;20049;-84
2021/08/27 02:36:17;;;;;;;1.90;1.48;;;;;;;13.05;84.98;100669.63;4971107;28;20043;-80
2021/08/27 02:38:46;;;;;;;4.03;0.57;;;;;;;13.06;84.67;100663.44;4963204;28;20061;-79
2021/08/27 02:41:13;;;;;;;1.13;0.88;;;;;;;13.05;84.70;100657.31;4935681;28;20054;-79
2021/08/27 02:43:39;;;;;;;2.72;0.85;;;;;;;13.03;84.52;100659.09;4959997;28;20699;-84
2021/08/27 02:46:06;;;;;;;4.40;1.60;;;;;;;13.04;84.62;100662.63;4950738;28;21056;-82
2021/08/27 02:48:33;;;;;;;4.05;1.75;;;;;;;13.04;85.17;100666.09;4949712;28;20378;-79
2021/08/27 02:51:14;;;;;;;1.70;0.77;;;;;;;13.03;84.61;100669.63;4963263;28;20808;-81
2021/08/27 02:53:46;;;;;;;1.08;0.68;;;;;;;13.04;84.67;100667.88;4952804;28;20601;-84
2021/08/27 02:56:26;;;;;;;2.08;1.35;;;;;;;13.06;85.22;100672.22;4965207;28;23196;-77
2021/08/27 02:58:54;;;;;;;3.33;1.00;;;;;;;13.08;84.95;100670.41;4953507;28;20073;-78
2021/08/27 03:01:35;;;;;;;1.80;1.05;;;;;;;13.06;85.20;100661.69;4965741;28;20055;-84
2021/08/27 03:04:41;;;;;;;1.02;0.73;;;;;;;12.97;86.01;100661.88;4952403;28;20077;-82
2021/08/27 03:07:13;;;;;;;7.25;0.85;;;;;;;12.88;85.88;100662.00;4965806;28;21997;-82
2021/08/27 03:10:07;;;;;;;6.07;1.10;;;;;;;12.84;87.18;100663.84;4952648;28;20521;-84
2021/08/27 03:13:00;;;;;;;6.90;1.48;;;;;;;12.79;86.78;100656.94;4952853;28;20473;-80
2021/08/27 03:15:38;;;;;;;2.70;0.77;;;;;;;12.74;87.01;100649.16;4964333;28;20505;-80
2021/08/27 03:18:12;;;;;;;2.58;1.02;;;;;;;12.70;86.97;100653.59;4955447;28;20047;-78
2021/08/27 03:20:49;;;;;;;3.22;1.08;;;;;;;12.66;87.28;100657.16;4964167;28;20069;-81
2021/08/27 03:23:17;;;;;;;2.72;1.00;;;;;;;12.65;87.12;100659.81;4936539;28;20831;-81
2021/08/27 03:25:46;;;;;;;4.72;1.25;;;;;;;12.67;87.32;100658.03;4948183;28;20203;-79
2021/08/27 03:28:23;;;;;;;3.15;0.70;;;;;;;12.65;87.69;100646.69;4953341;28;20053;-80
2021/08/27 03:30:55;;;;;;;5.15;1.30;;;;;;;12.63;88.24;100648.47;4945134;28;20061;-81
2021/08/27 03:33:24;;;;;;;1.45;0.63;;;;;;;12.62;87.52;100646.72;4949601;28;20044;-80
2021/08/27 03:35:54;;;;;;;6.20;1.15;;;;;;;12.60;87.29;100643.28;4969808;28;20054;-85
2021/08/27 03:38:23;;;;;;;2.10;1.00;;;;;;;12.56;87.84;100639.84;4965338;28;20050;-79
2021/08/27 03:40:51;;;;;;;2.28;1.15;;;;;;;12.54;88.17;100639.88;4935133;28;20049;-78
2021/08/27 03:43:18;;;;;;;3.13;1.38;;;;;;;12.51;88.55;100642.53;4944557;28;20887;-82
2021/08/27 03:45:46;;;;;;;3.67;1.00;;;;;;;12.52;88.22;100644.25;4949197;28;20132;-84
2021/08/27 03:48:13;;;;;;;2.25;1.00;;;;;;;12.53;88.12;100635.50;4955937;28;20045;-78
2021/08/27 03:50:40;;;;;;;2.10;0.90;;;;;;;12.52;88.07;100632.91;4935246;28;20100;-79
2021/08/27 03:53:10;;;;;;;3.33;0.90;;;;;;;12.52;88.71;100630.28;4948463;28;21008;-83
2021/08/27 03:55:38;;;;;;;2.38;1.00;;;;;;;12.53;88.15;100630.25;4945986;28;20133;-82
2021/08/27 03:58:05;;;;;;;2.72;0.98;;;;;;;12.54;88.20;100631.09;4952958;28;20046;-83
2021/08/27 04:00:31;;;;;;;2.58;0.90;;;;;;;12.55;88.28;100638.09;4951438;28;20053;-78
2021/08/27 04:02:58;;;;;;;2.25;1.00;;;;;;;12.56;88.40;100643.31;4944751;28;20056;-82
2021/08/27 04:05:25;;;;;;;4.90;1.05;;;;;;;12.58;88.45;100632.81;4967820;28;20058;-79
2021/08/27 04:07:52;;;;;;;2.72;1.63;;;;;;;12.61;88.17;100634.50;4964594;28;20165;-81
2021/08/27 04:10:21;;;;;;;4.65;1.00;;;;;;;12.66;88.10;100635.28;4953829;28;20042;-83
2021/08/27 04:12:49;;;;;;;1.52;0.95;;;;;;;12.67;87.90;100637.91;4951174;28;20551;-82
2021/08/27 04:15:22;;;;;;;2.78;0.82;;;;;;;12.68;88.30;100638.75;4947518;28;20046;-82
2021/08/27 04:17:49;;;;;;;1.92;0.73;;;;;;;12.69;88.37;100632.59;4965404;28;20042;-84
2021/08/27 04:20:15;;;;;;;4.28;1.33;;;;;;;12.66;88.85;100630.91;4956259;28;20042;-82
2021/08/27 04:22:42;;;;;;;4.38;1.33;;;;;;;12.67;88.20;100634.38;4941074;28;20050;-77
2021/08/27 04:25:11;;;;;;;3.17;1.45;;;;;;;12.67;88.64;100634.38;4951265;28;20066;-83
2021/08/27 04:27:37;;;;;;;4.50;1.55;;;;;;;12.66;88.86;100625.66;4948052;28;20761;-82
2021/08/27 04:30:05;;;;;;;6.38;1.30;;;;;;;12.67;88.38;100626.50;4939617;28;20061;-79
2021/08/27 04:32:31;;;;;;;6.65;1.40;;;;;;;12.66;88.43;100623.03;4964436;28;20034;-80
2021/08/27 04:34:58;;;;;;;3.80;1.13;;;;;;;12.69;88.21;100625.59;4956199;28;20042;-78
2021/08/27 04:37:24;;;;;;;3.28;0.82;;;;;;;12.72;88.19;100622.91;4952838;28;20160;-81
2021/08/27 04:39:51;;;;;;;3.63;0.80;;;;;;;12.76;87.81;100623.69;4967493;28;20164;-78
2021/08/27 04:42:18;;;;;;;1.23;0.82;;;;;;;12.77;87.78;100622.81;4970241;28;20038;-83
2021/08/27 04:44:44;;;;;;;2.92;0.98;;;;;;;12.78;87.65;100628.97;4948216;28;20046;-80
2021/08/27 04:47:11;;;;;;;1.52;1.20;;;;;;;12.78;87.93;100628.97;4935030;28;20054;-82
2021/08/27 04:49:37;;;;;;;1.60;0.77;;;;;;;12.78;87.61;100623.69;4945942;28;21114;-78
2021/08/27 04:52:04;;;;;;;3.60;2.15;;;;;;;12.79;87.30;100620.16;4955239;28;20048;-80
2021/08/27 04:54:34;;;;;;;3.15;1.38;;;;;;;12.79;87.66;100623.66;4954529;28;20042;-78
2021/08/27 04:57:00;;;;;;;1.77;1.30;;;;;;;12.77;88.03;100627.22;4945684;28;20058;-81
2021/08/27 04:59:27;;;;;;;3.95;1.52;;;;;;;12.74;88.44;100630.75;4958588;28;20811;-80
2021/08/27 05:01:53;;;;;;;6.75;1.38;;;;;;;12.68;89.02;100629.09;4934556;28;20045;-77
2021/08/27 05:04:20;;;;;;;4.88;1.33;;;;;;;12.70;89.07;100629.09;4935062;28;20061;-84
2021/08/27 05:06:51;;;;;;;6.35;1.92;;;;;;;12.71;88.96;100625.56;4969091;28;20082;-81
2021/08/27 05:09:19;;;;;;;5.00;1.20;;;;;;;12.70;88.76;100618.59;4953211;28;20034;-79
2021/08/27 05:11:46;;;;;;;2.83;1.30;;;;;;;12.67;89.54;100622.13;4976411;28;20092;-79
2021/08/27 05:14:13;;;;;;;6.57;1.42;;;;;;;12.70;89.43;100626.47;4953923;28;20051;-81
2021/08/27 05:16:40;;;;;;;3.67;1.48;;;;;;;12.73;89.12;100621.16;4971824;28;20054;-80
2021/08/27 05:19:09;;;;;;;3.00;1.50;;;;;;;12.75;89.34;100622.00;4974053;28;20456;-80
2021/08/27 05:21:37;;;;;;;3.53;1.60;;;;;;;12.79;89.19;100625.41;4970618;28;20066;-80
2021/08/27 05:24:05;;;;;;;2.95;1.42;;;;;;;12.84;88.90;100621.81;4957909;28;20054;-80
2021/08/27 05:26:33;;;;;;;6.60;2.38;;;;;;;12.84;89.32;100627.06;4972164;28;20121;-89
2021/08/27 05:29:01;;;;;;;5.97;1.98;;;;;;;12.85;89.45;100630.56;4965660;28;20074;-90
2021/08/27 05:31:32;;;;;;;7.95;2.22;;;;;;;12.84;89.73;100637.59;4965048;28;20053;-81
2021/08/27 05:33:59;;;;;;;6.65;1.80;;;;;;;12.86;89.92;100635.78;4972289;28;20053;-87
2021/08/27 05:36:27;;;;;;;6.10;2.33;;;;;;;12.86;90.22;100638.41;4946369;28;20073;-80
2021/08/27 05:38:54;;;;;;;5.35;1.60;;;;;;;12.87;89.89;100624.38;4958399;28;20053;-80
2021/08/27 05:41:21;;;;;;;5.80;1.85;;;;;;;12.89;90.40;100629.59;4960089;28;20513;-79
2021/08/27 05:43:48;;;;;;;7.50;2.15;;;;;;;12.89;90.50;100627.84;4937769;28;20046;-84
2021/08/27 05:46:14;;;;;;;11.40;3.38;;;;;;;12.91;90.42;100627.81;4973730;28;20115;-82
2021/08/27 05:48:41;;;;;;;9.90;2.78;;;;;;;12.95;90.43;100631.25;4971696;28;20073;-80
2021/08/27 05:51:07;;;;;;;7.25;2.05;;;;;;;12.99;90.22;100630.31;4951833;28;20309;-82
2021/08/27 05:53:34;;;;;;;11.48;2.97;;;;;;;13.05;90.67;100628.41;4950597;28;20074;-79
2021/08/27 05:56:00;;;;;;;13.25;4.40;;;;;;;13.11;91.11;100631.81;4948484;28;20132;-82
2021/08/27 05:58:28;;;;;;;5.30;2.50;;;;;;;13.17;90.37;100629.09;4952783;28;20050;-83
2021/08/27 06:00:56;;;;;;;9.95;2.47;;;;;;;13.20;90.11;100629.00;4958491;28;20058;-82
2021/08/27 06:03:22;;;;;;;6.75;2.65;;;;;;;13.22;90.72;100635.13;4949960;28;20125;-80
2021/08/27 06:05:49;;;;;;;9.48;1.88;;;;;;;13.28;90.35;100636.75;4971778;28;20046;-82
2021/08/27 06:08:16;;;;;;;6.45;1.83;;;;;;;13.34;90.44;100637.47;4935243;28;20442;-79
2021/08/27 06:10:42;;;;;;;5.45;1.83;;;;;;;13.40;90.28;100628.63;4955245;28;20762;-81
2021/08/27 06:13:09;;;;;;;2.05;1.92;;;;;;;13.44;89.97;100635.56;4955546;28;20540;-80
2021/08/27 06:15:36;;;;;;;9.05;2.03;;;;;;;13.46;90.04;100631.13;4948718;28;20487;-81
2021/08/27 06:18:02;;;;;;;5.38;1.98;;;;;;;13.44;90.58;100627.69;4954797;28;20227;-79
2021/08/27 06:20:32;;;;;;;6.68;1.52;;;;;;;13.43;90.46;100628.56;4953057;28;20050;-82
2021/08/27 06:22:59;;;;;;;3.90;1.35;;;;;;;13.47;90.62;100627.59;4952191;28;20047;-80
2021/08/27 06:25:25;;;;;;;3.83;1.38;;;;;;;13.46;90.36;100625.88;4955102;28;20568;-79
2021/08/27 06:27:52;;;;;;;6.80;1.77;;;;;;;13.49;89.98;100625.81;4964429;28;20611;-78
2021/08/27 06:30:18;;;;;;;1.90;1.52;;;;;;;13.51;89.90;100620.53;4969438;28;20497;-79
2021/08/27 06:32:54;;;;;;;8.95;2.08;;;;;;;13.51;90.17;100608.22;4963568;28;20043;-78
2021/08/27 06:35:29;;;;;;;2.53;1.83;;;;;;;13.54;90.12;100616.03;4948553;28;20133;-80
2021/08/27 06:40:40;;;;;;;2.20;1.73;;;;;;;13.59;89.51;100609.84;4955985;28;20300;-79
2021/08/27 06:43:07;;;;;;;4.97;1.33;;;;;;;13.59;89.52;100612.47;4954458;28;20185;-82
2021/08/27 06:45:33;;;;;;;6.47;1.30;;;;;;;13.62;89.59;100615.88;4945044;28;20061;-84
2021/08/27 06:48:00;;;;;;;2.45;1.15;;;;;;;13.63;89.08;100617.59;4950858;28;20093;-85
2021/08/27 06:50:26;;;;;;;3.03;1.08;;;;;;;13.68;88.70;100614.88;4945199;28;20054;-81
2021/08/27 06:52:56;;;;;;;4.13;1.20;;;;;;;13.78;89.08;100612.91;4953704;28;21522;-80
2021/08/27 06:55:23;;;;;;;6.05;1.10;;;;;;;13.88;88.60;100601.25;4952509;28;20127;-85
2021/08/27 06:57:50;;;;;;;1.52;0.98;;;;;;;13.98;88.10;100602.78;4945215;28;20067;-81
2021/08/27 07:00:17;;;;;;;3.47;1.52;;;;;;;14.08;87.23;100603.44;4953111;28;20043;-81
2021/08/27 07:02:44;;;;;;;2.03;1.05;;;;;;;14.09;87.71;100602.50;4931302;28;20043;-79
2021/08/27 07:05:11;;;;;;;5.65;1.67;;;;;;;14.07;88.12;100609.59;4931369;28;20939;-79
2021/08/27 07:07:41;;;;;;;4.50;1.55;;;;;;;14.03;88.65;100600.91;4952091;28;20074;-81
2021/08/27 07:10:08;;;;;;;2.10;1.27;;;;;;;14.02;89.06;100603.56;4932697;28;20047;-82
2021/08/27 07:12:34;;;;;;;6.53;2.00;;;;;;;14.00;88.97;100602.72;4951939;28;20169;-79
2021/08/27 07:15:02;;;;;;;2.70;1.23;;;;;;;13.99;88.90;100608.91;4949403;28;20038;-83
2021/08/27 07:20:13;;;;;;;1.83;1.25;;;;;;;14.01;90.52;100601.84;4951347;28;20062;-84
2021/08/27 07:22:44;;;;;;;3.20;1.20;;;;;;;14.07;90.35;100607.81;4949202;28;20545;-82
2021/08/27 07:25:12;;;;;;;1.92;1.20;;;;;;;14.08;90.32;100606.06;4964377;28;20058;-84
2021/08/27 07:27:40;;;;;;;3.03;2.67;;;;;;;14.02;90.98;100606.22;4950620;28;20117;-83
2021/08/27 07:30:09;;;;;;;4.20;1.33;;;;;;;14.01;92.02;100607.09;4952748;28;20461;-82
2021/08/27 07:32:36;;;;;;;2.72;1.77;;;;;;;13.94;92.82;100608.16;4948271;28;22390;-80
2021/08/27 07:35:05;;;;;;;6.30;1.75;;;;;;;13.81;93.49;100611.06;4953733;28;20118;-83
2021/08/27 07:37:37;;;;;;;3.65;1.63;;;;;;;13.61;94.94;100605.38;4971244;28;20034;-80
2021/08/27 07:40:08;;;;;;;8.40;2.08;;;;;;;13.44;96.91;100606.63;4966410;28;20046;-83
2021/08/27 07:42:35;;;;;;;3.33;1.92;;;;;;;13.35;97.66;100604.16;4971993;28;20472;-84
2021/08/27 07:45:08;;;;;;;5.25;1.75;;;;;;;13.27;98.29;100600.81;4948859;28;20047;-81
2021/08/27 07:47:35;;;;;;;3.42;1.42;;;;;;;13.21;98.42;100604.47;4953780;28;20065;-83
2021/08/27 07:50:03;;;;;;;4.47;2.22;;;;;;;13.20;98.99;100602.72;4961734;28;20069;-79
2021/08/27 07:52:30;;;;;;;6.30;1.65;;;;;;;13.18;100.00;100601.88;4958501;28;20055;-82
2021/08/27 07:54:59;;;;;;;2.80;1.58;;;;;;;13.13;100.00;100607.25;4945607;28;20046;-81
2021/08/27 07:57:29;;;;;;;3.63;1.65;;;;;;;13.08;100.00;100606.47;4957766;28;20585;-79
2021/08/27 07:59:56;;;;;;;6.03;2.00;;;;;;;13.05;100.00;100601.28;4976691;28;20137;-82
2021/08/27 08:02:40;;;;;;;4.05;1.63;;;;;;;13.02;100.00;100599.59;4961746;28;20223;-82
2021/08/27 08:05:08;;;;;;;3.72;2.10;;;;;;;13.03;100.00;100600.44;4946135;28;20051;-86
2021/08/27 08:07:35;;;;;;;4.60;1.95;;;;;;;13.04;100.00;100605.66;4954474;28;20173;-83
2021/08/27 08:10:01;;;;;;;5.40;1.90;;;;;;;13.07;100.00;100602.09;4965342;28;20186;-83
2021/08/27 08:12:29;;;;;;;5.70;2.05;;;;;;;13.08;100.00;100604.69;4945920;28;20423;-83
2021/08/27 08:14:56;;;;;;;6.50;2.40;;;;;;;13.04;100.00;100608.28;4948793;28;20417;-85
2021/08/27 08:17:23;;;;;;;4.88;2.63;;;;;;;13.03;100.00;100605.69;4947623;28;20046;-85
2021/08/27 08:19:49;;;;;;;6.68;3.15;;;;;;;13.02;100.00;100601.31;4950920;28;20050;-87
2021/08/27 08:25:18;;;;;;;7.50;2.80;;;;;;;13.13;100.00;100615.13;4980528;28;20051;-85
2021/08/27 08:27:51;;;;;;;3.38;2.60;;;;;;;13.17;100.00;100615.94;4949554;28;20106;-84
2021/08/27 08:30:17;;;;;;;5.85;2.15;;;;;;;13.19;100.00;100608.88;4966401;28;20042;-88
2021/08/27 08:32:44;;;;;;;8.15;2.58;;;;;;;13.20;100.00;100611.47;4951296;28;20078;-86
2021/08/27 08:35:10;;;;;;;6.05;2.53;;;;;;;13.22;100.00;100609.69;4953651;28;20053;-86
2021/08/27 08:37:41;;;;;;;4.13;2.05;;;;;;;13.29;100.00;100613.03;4941283;28;20042;-86
2021/08/27 08:40:13;;;;;;;7.38;2.40;;;;;;;13.30;100.00;100621.81;4944816;28;20061;-84
2021/08/27 08:42:41;;;;;;;3.05;1.98;;;;;;;13.29;100.00;100620.06;4950560;28;20046;-85
2021/08/27 08:45:08;;;;;;;3.53;1.85;;;;;;;13.27;100.00;100628.00;4949810;28;20495;-81
2021/08/27 08:47:42;;;;;;;4.00;2.28;;;;;;;13.26;100.00;100612.22;4954454;28;20146;-88
2021/08/27 08:50:10;;;;;;;4.80;2.10;;;;;;;13.27;100.00;100621.84;4938895;28;20051;-86
2021/08/27 08:52:38;;;;;;;6.78;2.30;;;;;;;13.31;100.00;100619.16;4960193;28;20118;-83
2021/08/27 08:55:05;;;;;;;4.32;1.80;;;;;;;13.32;100.00;100622.63;4968897;28;20126;-85
2021/08/27 08:57:35;;;;;;;3.05;2.30;;;;;;;13.32;100.00;100627.88;4949786;28;20054;-86
2021/08/27 09:00:02;;;;;;;1.92;1.08;;;;;;;13.30;100.00;100629.69;4959542;28;20054;-85
2021/08/27 09:02:31;;;;;;;2.97;1.50;;;;;;;13.31;100.00;100626.16;4959796;28;20176;-87
2021/08/27 09:04:57;;;;;;;3.53;1.20;;;;;;;13.29;100.00;100626.19;4954627;28;20073;-84
2021/08/27 09:07:24;;;;;;;1.63;1.30;;;;;;;13.34;100.00;100623.47;4960807;28;20077;-85
2021/08/27 09:09:50;;;;;;;3.08;1.50;;;;;;;13.38;100.00;100630.44;4959717;28;20049;-87
2021/08/27 09:12:27;;;;;;;2.08;1.17;;;;;;;13.48;100.00;100626.72;4976384;28;20047;-84
2021/08/27 09:15:14;;;;;;;1.05;1.02;;;;;;;13.69;100.00;100628.00;4969507;28;20060;-84
2021/08/27 09:17:48;;;;;;;1.38;1.02;;;;;;;13.86;100.00;100622.34;4972437;28;20057;-84
2021/08/27 09:20:22;;;;;;;1.55;1.30;;;;;;;13.96;100.00;100630.03;4960119;28;20050;-79
2021/08/27 09:22:54;;;;;;;2.30;0.82;;;;;;;14.00;100.00;100629.06;4936865;28;20101;-92
2021/08/27 09:25:27;;;;;;;2.50;1.10;;;;;;;13.99;100.00;100629.97;4973390;28;20042;-89
2021/08/27 09:28:20;;;;;;;4.10;1.10;;;;;;;14.00;100.00;100634.31;4971791;28;20047;-89
2021/08/27 09:30:48;;;;;;;1.58;0.77;;;;;;;13.98;100.00;100638.75;4961197;28;20054;-89
2021/08/27 09:33:36;;;;;;;3.67;1.42;;;;;;;13.94;100.00;100642.38;4959062;28;20078;-87
2021/08/27 09:36:09;;;;;;;2.03;1.10;;;;;;;13.92;100.00;100641.53;4967164;28;20043;-88
2021/08/27 09:38:41;;;;;;;3.40;1.05;;;;;;;13.93;100.00;100640.63;4954748;28;20101;-89
2021/08/27 09:41:15;;;;;;;2.35;1.70;;;;;;;14.04;100.00;100646.50;4965100;28;20042;-88
2021/08/27 09:43:57;;;;;;;2.33;1.05;;;;;;;14.18;100.00;100651.44;4970244;28;20274;-87
2021/08/27 09:46:45;;;;;;;0.82;0.65;;;;;;;14.25;100.00;100641.63;4958858;28;20058;-87
2021/08/27 09:49:37;;;;;;;1.27;1.00;;;;;;;14.24;100.00;100643.41;4966585;28;20081;-86
2021/08/27 09:52:10;;;;;;;2.45;1.55;;;;;;;14.20;100.00;100660.19;4945459;28;20069;-87
2021/08/27 09:54:43;;;;;;;3.00;1.20;;;;;;;14.18;100.00;100643.53;4963523;28;20054;-86
2021/08/27 09:57:13;;;;;;;1.33;0.80;;;;;;;14.16;100.00;100654.13;4960807;28;20046;-87
2021/08/27 09:59:42;;;;;;;1.20;1.20;;;;;;;14.17;100.00;100657.59;4960347;28;20790;-88
2021/08/27 10:02:14;;;;;;;3.00;1.35;;;;;;;14.13;100.00;100654.19;4964076;28;20046;-88
2021/08/27 10:04:57;;;;;;;3.05;1.70;;;;;;;14.10;100.00;100661.31;4956553;28;20057;-88
2021/08/27 10:07:30;;;;;;;0.98;0.80;;;;;;;14.10;100.00;100656.03;4961737;28;20053;-88
2021/08/27 10:09:59;;;;;;;0.90;0.90;;;;;;;14.18;100.00;100661.97;4957014;28;20049;-87
2021/08/27 10:12:32;;;;;;;1.67;1.55;;;;;;;14.29;100.00;100654.69;4956746;28;20055;-87
2021/08/27 10:15:00;;;;;;;1.40;1.30;;;;;;;14.33;100.00;100660.75;4971793;28;20080;-88
2021/08/27 10:17:29;;;;;;;2.80;1.10;;;;;;;14.32;100.00;100651.13;4954630;28;20626;-86
2021/08/27 10:19:56;;;;;;;1.33;1.10;;;;;;;14.30;100.00;100656.44;4959342;28;20823;-86
2021/08/27 10:22:24;;;;;;;1.98;1.25;;;;;;;14.29;100.00;100656.44;4956754;28;20122;-88
2021/08/27 10:24:51;;;;;;;3.42;2.70;;;;;;;14.27;100.00;100660.91;4972367;28;20058;-88
2021/08/27 10:27:20;;;;;;;1.90;1.23;;;;;;;14.26;100.00;100651.25;4954895;28;20070;-86
2021/08/27 10:29:56;;;;;;;4.95;2.30;;;;;;;14.26;100.00;100656.53;4974199;28;20058;-86
2021/08/27 10:32:44;;;;;;;4.85;1.40;;;;;;;14.31;100.00;100662.53;4930288;28;20057;-87
2021/08/27 10:35:30;;;;;;;1.95;1.23;;;;;;;14.31;100.00;100650.22;4948329;28;20042;-87
2021/08/27 10:37:57;;;;;;;1.38;0.82;;;;;;;14.32;100.00;100654.59;4958199;28;20452;-86
2021/08/27 10:40:25;;;;;;;1.88;1.30;;;;;;;14.36;100.00;100655.41;4953754;28;20113;-87
2021/08/27 10:43:03;;;;;;;1.13;1.02;;;;;;;14.36;100.00;100658.88;4957882;28;20053;-89
2021/08/27 10:45:42;;;;;;;2.42;2.17;;;;;;;14.42;100.00;100649.09;4954588;28;20129;-89
2021/08/27 10:48:16;;;;;;;1.30;1.00;;;;;;;14.59;100.00;100651.31;4957119;28;20038;-87
2021/08/27 10:50:45;;;;;;;;;;;;;;;14.77;99.19;100644.72;4959824;28;20055;-85
2021/08/27 10:53:35;;;;;;;0.90;0.90;;;;;;;15.05;98.60;100647.50;4936293;28;20403;-88
2021/08/27 10:56:50;;;;;;;1.20;1.08;;;;;;;15.69;96.52;100641.25;4978075;28;20030;-88
2021/08/27 10:59:23;;;;;;;1.77;0.93;;;;;;;16.62;92.67;100640.94;4961899;28;20066;-91
2021/08/27 11:01:59;;;;;;;4.25;1.10;;;;;;;17.12;88.50;100646.25;4942625;28;20150;-86
2021/08/27 11:04:34;;;;;;;1.23;1.00;;;;;;;17.28;87.69;100637.78;4952946;28;20133;-86
2021/08/27 11:07:15;;;;;;;2.55;1.15;;;;;;;17.33;87.79;100643.75;4958711;28;21169;-85
2021/08/27 11:10:09;;;;;;;1.30;1.20;;;;;;;17.20;87.37;100643.34;4953909;28;20388;-86
2021/08/27 11:12:36;;;;;;;2.65;1.05;;;;;;;16.95;88.49;100646.03;4972627;28;20059;-88
2021/08/27 11:15:32;;;;;;;0.95;0.90;;;;;;;16.73;88.36;100641.44;4941793;28;20050;-87
2021/08/27 11:18:35;;;;;;;1.00;0.80;;;;;;;16.53;89.63;100640.34;4972698;28;20050;-86
2021/08/27 11:21:39;;;;;;;0.90;0.73;;;;;;;16.44;89.78;100645.06;4933716;28;20050;-87
2021/08/27 11:24:25;;;;;;;0.85;0.80;;;;;;;16.41;90.38;100643.41;4973319;28;20136;-86
2021/08/27 11:27:08;;;;;;;1.65;0.75;;;;;;;16.54;90.33;100647.38;4945632;28;20422;-86
2021/08/27 11:29:45;;;;;;;1.43;1.03;;;;;;;16.65;89.00;100649.63;4953939;28;20079;-87
2021/08/27 11:32:12;;;;;;;0.80;0.52;;;;;;;16.63;88.76;100650.59;4941137;28;20460;-86
2021/08/27 11:35:02;;;;;;;1.05;0.93;;;;;;;16.63;88.76;100645.31;4961144;28;20127;-87
2021/08/27 11:37:41;;;;;;;0.63;0.60;;;;;;;16.67;88.25;100646.94;4963025;28;20038;-86
2021/08/27 11:40:13;;;;;;;1.42;1.25;;;;;;;16.93;88.01;100650.50;4957030;28;20095;-87
2021/08/27 11:42:44;;;;;;;2.70;1.35;;;;;;;17.38;86.42;100649.75;4941785;28;20643;-87
2021/08/27 11:45:15;;;;;;;1.40;0.93;;;;;;;17.95;83.67;100650.22;4958678;28;20094;-87
2021/08/27 11:48:01;;;;;;;2.15;0.80;;;;;;;18.52;81.25;100636.41;4955397;28;20197;-87
2021/08/27 11:50:49;;;;;;;1.30;1.13;;;;;;;18.77;77.03;100644.19;4959884;28;20126;-87